createdAt,value
2023-01-11T00:02:12.844Z,31.77
2023-01-11T00:04:39.244Z,31.78
2023-01-11T00:07:06.733Z,31.63
2023-01-11T00:09:31.891Z,31.78
2023-01-11T00:11:58.229Z,31.78
2023-01-11T00:14:24.573Z,31.87
2023-01-11T00:16:50.926Z,31.78
2023-01-11T00:19:17.273Z,31.64
2023-01-11T00:21:43.618Z,31.62
2023-01-11T00:24:09.967Z,31.58
2023-01-11T00:26:36.316Z,31.60
2023-01-11T00:29:02.661Z,31.72
2023-01-11T00:31:29.059Z,31.51
2023-01-11T00:33:55.354Z,31.60
2023-01-11T00:36:21.720Z,31.62
2023-01-11T00:38:48.072Z,31.53
2023-01-11T00:41:14.418Z,31.58
2023-01-11T00:43:40.781Z,31.59
2023-01-11T00:46:08.120Z,31.62
2023-01-11T00:48:33.514Z,31.68
2023-01-11T00:50:59.875Z,31.67
2023-01-11T00:53:26.215Z,31.73
2023-01-11T00:55:52.558Z,31.78
2023-01-11T00:58:18.892Z,31.83
2023-01-11T01:00:45.247Z,31.85
2023-01-11T01:03:11.587Z,31.88
2023-01-11T01:05:38.083Z,31.85
2023-01-11T01:08:04.435Z,31.89
2023-01-11T01:10:30.797Z,31.94
2023-01-11T01:12:57.154Z,31.88
2023-01-11T01:15:23.501Z,31.96
2023-01-11T01:17:49.842Z,31.98
2023-01-11T01:20:16.193Z,31.98
2023-01-11T01:22:42.537Z,31.97
2023-01-11T01:25:08.898Z,31.95
2023-01-11T01:27:35.248Z,31.94
2023-01-11T01:30:01.620Z,31.94
2023-01-11T01:32:27.979Z,31.94
2023-01-11T01:34:54.362Z,31.97
2023-01-11T01:37:20.698Z,32.01
2023-01-11T01:39:47.042Z,31.96
2023-01-11T01:42:13.395Z,31.92
2023-01-11T01:44:40.913Z,32.01
2023-01-11T01:47:07.249Z,32.00
2023-01-11T01:49:33.633Z,32.04
2023-01-11T01:51:59.967Z,32.16
2023-01-11T01:54:26.312Z,32.23
2023-01-11T01:56:52.695Z,32.16
2023-01-11T01:59:19.049Z,32.13
2023-01-11T02:01:45.416Z,32.06
2023-01-11T02:04:11.749Z,32.06
2023-01-11T02:06:38.130Z,31.98
2023-01-11T02:09:04.446Z,31.98
2023-01-11T02:11:30.790Z,32.00
2023-01-11T02:13:57.141Z,32.06
2023-01-11T02:16:23.515Z,32.05
2023-01-11T02:18:49.839Z,32.08
2023-01-11T02:21:16.214Z,32.11
2023-01-11T02:23:42.556Z,32.04
2023-01-11T02:26:08.930Z,32.07
2023-01-11T02:28:36.486Z,32.12
2023-01-11T02:31:01.668Z,32.11
2023-01-11T02:33:27.983Z,32.12
2023-01-11T02:35:54.324Z,32.09
2023-01-11T02:38:20.696Z,32.20
2023-01-11T02:40:47.032Z,32.30
2023-01-11T02:43:13.389Z,32.27
2023-01-11T02:45:39.730Z,32.39
2023-01-11T02:48:06.083Z,32.36
2023-01-11T02:50:32.435Z,32.30
2023-01-11T02:52:58.780Z,32.38
2023-01-11T02:55:25.124Z,32.36
2023-01-11T02:57:51.474Z,32.35
2023-01-11T03:00:17.824Z,32.33
2023-01-11T03:02:44.188Z,32.34
2023-01-11T03:05:10.524Z,32.34
2023-01-11T03:07:36.864Z,32.30
2023-01-11T03:10:03.212Z,32.20
2023-01-11T03:12:29.562Z,32.24
2023-01-11T03:14:57.850Z,32.09
2023-01-11T03:17:22.256Z,31.98
2023-01-11T03:19:48.597Z,31.98
2023-01-11T03:22:14.950Z,31.88
2023-01-11T03:24:41.300Z,31.77
2023-01-11T03:27:07.657Z,31.74
2023-01-11T03:29:33.993Z,31.68
2023-01-11T03:32:00.343Z,31.72
2023-01-11T03:34:26.692Z,31.59
2023-01-11T03:36:53.040Z,31.51
2023-01-11T03:39:19.413Z,31.43
2023-01-11T03:41:45.775Z,31.38
2023-01-11T03:44:12.109Z,31.30
2023-01-11T03:46:38.499Z,31.20
2023-01-11T03:49:04.833Z,31.11
2023-01-11T03:51:31.164Z,31.24
2023-01-11T03:53:57.532Z,31.09
2023-01-11T03:56:24.834Z,30.88
2023-01-11T03:58:50.221Z,30.79
2023-01-11T04:01:16.660Z,30.75
2023-01-11T04:03:42.919Z,30.65
2023-01-11T04:06:09.272Z,30.60
2023-01-11T04:08:35.619Z,30.50
2023-01-11T04:11:01.969Z,30.48
2023-01-11T04:13:28.354Z,30.45
2023-01-11T04:15:54.696Z,30.36
2023-01-11T04:18:21.086Z,30.33
2023-01-11T04:20:47.412Z,30.43
2023-01-11T04:23:13.743Z,30.51
2023-01-11T04:25:40.095Z,30.35
2023-01-11T04:28:06.467Z,30.24
2023-01-11T04:30:32.805Z,30.21
2023-01-11T04:32:59.203Z,30.22
2023-01-11T04:35:25.542Z,30.11
2023-01-11T04:37:51.883Z,30.01
2023-01-11T04:40:18.228Z,29.99
2023-01-11T04:42:44.565Z,29.98
2023-01-11T04:45:10.937Z,29.89
2023-01-11T04:47:37.271Z,29.84
2023-01-11T04:50:03.614Z,29.76
2023-01-11T04:52:29.972Z,29.79
2023-01-11T04:54:56.318Z,29.70
2023-01-11T04:57:22.673Z,29.68
2023-01-11T04:59:49.019Z,29.57
2023-01-11T05:02:15.387Z,29.51
2023-01-11T05:04:41.800Z,29.47
2023-01-11T05:07:08.108Z,29.40
2023-01-11T05:09:34.442Z,29.45
2023-01-11T05:12:00.875Z,29.51
2023-01-11T05:14:27.219Z,29.31
2023-01-11T05:16:53.628Z,29.32
2023-01-11T05:19:19.979Z,29.14
2023-01-11T05:21:46.369Z,29.08
2023-01-11T05:24:12.745Z,29.03
2023-01-11T05:26:39.100Z,28.92
2023-01-11T05:29:05.490Z,28.97
2023-01-11T05:31:31.893Z,28.85
2023-01-11T05:33:58.249Z,28.61
2023-01-11T05:36:24.642Z,28.35
2023-01-11T05:38:52.381Z,28.34
2023-01-11T05:41:17.379Z,28.34
2023-01-11T05:43:43.745Z,28.20
2023-01-11T05:46:10.220Z,28.10
2023-01-11T05:48:36.476Z,28.08
2023-01-11T05:51:02.857Z,27.98
2023-01-11T05:53:30.319Z,27.92
2023-01-11T05:55:56.704Z,27.89
2023-01-11T05:58:23.059Z,27.86
2023-01-11T06:00:49.459Z,27.70
2023-01-11T06:03:15.865Z,27.59
2023-01-11T06:05:42.202Z,27.34
2023-01-11T06:08:08.623Z,27.43
2023-01-11T06:10:35.014Z,27.31
2023-01-11T06:13:01.346Z,27.41
2023-01-11T06:15:27.731Z,27.28
2023-01-11T06:17:54.083Z,27.07
2023-01-11T06:20:20.809Z,27.13
2023-01-11T06:22:47.151Z,27.18
2023-01-11T06:25:13.551Z,27.06
2023-01-11T06:27:39.945Z,26.96
2023-01-11T06:30:06.332Z,26.73
2023-01-11T06:32:32.682Z,26.70
2023-01-11T06:34:59.066Z,27.22
2023-01-11T06:37:25.414Z,27.41
2023-01-11T06:39:51.788Z,27.32
2023-01-11T06:42:18.134Z,27.31
2023-01-11T06:44:44.521Z,27.08
2023-01-11T06:47:10.862Z,27.17
2023-01-11T06:49:37.256Z,27.08
2023-01-11T06:52:03.607Z,27.07
2023-01-11T06:54:29.987Z,27.26
2023-01-11T06:56:56.332Z,27.23
2023-01-11T06:59:25.438Z,27.53
2023-01-11T07:01:51.811Z,27.89
2023-01-11T07:04:18.185Z,28.10
2023-01-11T07:06:44.531Z,28.24
2023-01-11T07:09:10.942Z,28.39
2023-01-11T07:11:37.289Z,28.34
2023-01-11T07:14:03.695Z,28.47
2023-01-11T07:16:30.036Z,28.27
2023-01-11T07:18:56.432Z,28.11
2023-01-11T07:21:22.762Z,27.91
2023-01-11T07:23:49.150Z,27.68
2023-01-11T07:26:15.551Z,27.49
2023-01-11T07:28:41.945Z,27.75
2023-01-11T07:31:08.331Z,27.98
2023-01-11T07:33:34.696Z,27.80
2023-01-11T07:36:01.038Z,27.90
2023-01-11T07:38:27.423Z,27.86
2023-01-11T07:43:20.184Z,27.80
2023-01-11T07:45:47.159Z,27.59
2023-01-11T07:48:12.934Z,27.62
2023-01-11T07:50:39.271Z,27.46
2023-01-11T07:53:05.677Z,27.45
2023-01-11T07:55:32.012Z,27.55
2023-01-11T07:57:58.482Z,27.43
2023-01-11T08:00:24.905Z,27.70
2023-01-11T08:02:51.338Z,27.85
2023-01-11T08:05:17.632Z,27.97
2023-01-11T08:07:44.017Z,27.95
2023-01-11T08:10:10.360Z,27.96
2023-01-11T08:12:36.793Z,28.30
2023-01-11T08:15:03.123Z,28.22
2023-01-11T08:17:29.528Z,28.11
2023-01-11T08:19:55.866Z,28.08
2023-01-11T08:22:22.261Z,27.87
2023-01-11T08:24:48.619Z,27.86
2023-01-11T08:27:15.047Z,27.86
2023-01-11T08:29:41.367Z,27.81
2023-01-11T08:32:07.733Z,27.70
2023-01-11T08:34:34.638Z,27.30
2023-01-11T08:37:00.560Z,27.39
2023-01-11T08:39:26.940Z,26.86
2023-01-11T08:41:53.495Z,27.15
2023-01-11T08:44:33.343Z,27.24
2023-01-11T08:46:46.451Z,27.14
2023-01-11T08:49:12.749Z,27.22
2023-01-11T08:51:39.143Z,27.23
2023-01-11T08:54:05.495Z,27.34
2023-01-11T08:56:31.926Z,27.37
2023-01-11T08:58:58.253Z,27.49
2023-01-11T09:01:24.719Z,27.36
2023-01-11T09:03:51.020Z,27.36
2023-01-11T09:06:17.398Z,27.23
2023-01-11T09:08:43.761Z,27.29
2023-01-11T09:11:10.319Z,27.37
2023-01-11T09:13:36.489Z,27.15
2023-01-11T09:16:02.919Z,27.09
2023-01-11T09:18:29.232Z,27.21
2023-01-11T09:20:55.617Z,26.99
2023-01-11T09:23:21.966Z,26.87
2023-01-11T09:25:48.348Z,27.01
2023-01-11T09:28:14.721Z,26.81
2023-01-11T09:30:41.102Z,26.75
2023-01-11T09:33:07.458Z,26.85
2023-01-11T09:35:33.867Z,26.75
2023-01-11T09:38:00.214Z,26.86
2023-01-11T09:40:26.619Z,26.90
2023-01-11T09:42:52.970Z,26.89
2023-01-11T09:45:19.361Z,27.05
2023-01-11T09:47:45.693Z,27.03
2023-01-11T09:50:12.094Z,27.02
2023-01-11T09:52:38.462Z,27.18
2023-01-11T09:55:04.830Z,27.23
2023-01-11T09:57:31.175Z,27.32
2023-01-11T09:59:57.580Z,27.31
2023-01-11T10:02:23.930Z,27.28
2023-01-11T10:04:50.363Z,27.28
2023-01-11T10:07:16.713Z,27.06
2023-01-11T10:18:29.957Z,27.07
2023-01-11T10:18:33.077Z,26.95
2023-01-11T10:19:38.555Z,27.09
2023-01-11T10:21:55.034Z,27.19
2023-01-11T10:24:21.464Z,27.15
2023-01-11T10:26:47.815Z,27.16
2023-01-11T10:29:14.230Z,26.70
2023-01-11T10:31:40.619Z,27.08
2023-01-11T10:34:08.397Z,27.21
2023-01-11T10:36:33.286Z,27.44
2023-01-11T10:38:59.686Z,27.45
2023-01-11T10:41:26.264Z,27.47
2023-01-11T10:43:52.425Z,27.44
2023-01-11T10:46:18.777Z,27.54
2023-01-11T10:48:45.164Z,27.58
2023-01-11T10:51:11.546Z,27.70
2023-01-11T10:53:37.930Z,27.54
2023-01-11T10:56:04.276Z,27.39
2023-01-11T10:58:30.675Z,27.55
2023-01-11T11:00:57.147Z,27.50
2023-01-11T11:03:23.458Z,27.58
2023-01-11T11:05:49.791Z,27.53
2023-01-11T11:08:16.279Z,27.43
2023-01-11T11:10:42.621Z,27.49
2023-01-11T11:13:09.015Z,27.41
2023-01-11T11:15:35.394Z,27.38
2023-01-11T11:18:01.768Z,27.46
2023-01-11T11:20:28.127Z,27.73
2023-01-11T11:22:54.538Z,27.96
2023-01-11T11:25:20.935Z,28.02
2023-01-11T11:27:47.326Z,27.85
2023-01-11T11:30:13.720Z,27.92
2023-01-11T11:32:40.068Z,27.86
2023-01-11T11:35:06.420Z,27.65
2023-01-11T11:37:32.806Z,27.75
2023-01-11T11:40:00.467Z,27.89
2023-01-11T11:42:25.532Z,27.91
2023-01-11T11:44:51.868Z,27.83
2023-01-11T11:47:18.280Z,27.89
2023-01-11T11:49:44.646Z,27.53
2023-01-11T11:52:11.021Z,27.83
2023-01-11T11:54:37.356Z,27.48
2023-01-11T11:57:03.753Z,27.69
2023-01-11T11:59:30.129Z,27.76
2023-01-11T12:01:56.600Z,27.36
2023-01-11T12:04:22.974Z,27.29
2023-01-11T12:06:49.474Z,27.15
2023-01-11T12:09:15.628Z,27.15
2023-01-11T12:11:42.347Z,27.19
2023-01-11T12:14:08.680Z,27.15
2023-01-11T12:16:35.222Z,27.10
2023-01-11T12:19:01.531Z,27.11
2023-01-11T12:21:27.929Z,27.07
2023-01-11T12:23:54.278Z,27.19
2023-01-11T12:26:20.673Z,27.32
2023-01-11T12:28:47.041Z,27.45
2023-01-11T12:31:13.514Z,27.47
2023-01-11T12:33:39.798Z,27.50
2023-01-11T12:36:06.283Z,27.43
2023-01-11T12:38:32.668Z,27.38
2023-01-11T12:40:59.069Z,27.18
2023-01-11T12:43:25.427Z,27.21
2023-01-11T12:45:51.874Z,27.27
2023-01-11T12:48:18.159Z,27.39
2023-01-11T12:50:44.555Z,27.38
2023-01-11T12:53:10.895Z,27.56
2023-01-11T12:55:37.337Z,27.59
2023-01-11T12:58:03.692Z,27.52
2023-01-11T13:00:30.179Z,27.40
2023-01-11T13:02:56.607Z,27.38
2023-01-11T13:05:22.935Z,27.35
2023-01-11T13:07:49.275Z,27.47
2023-01-11T13:10:15.685Z,27.35
2023-01-11T13:12:42.053Z,27.19
2023-01-11T13:15:08.455Z,27.13
2023-01-11T13:17:34.843Z,27.39
2023-01-11T13:20:01.243Z,27.37
2023-01-11T13:22:27.603Z,27.14
2023-01-11T13:24:54.001Z,27.02
2023-01-11T13:27:20.345Z,26.90
2023-01-11T13:29:46.766Z,26.86
2023-01-11T13:32:13.111Z,26.86
2023-01-11T13:34:39.490Z,27.06
2023-01-11T13:37:05.819Z,27.34
2023-01-11T13:39:32.242Z,27.25
2023-01-11T13:41:58.577Z,27.26
2023-01-11T13:44:25.045Z,27.20
2023-01-11T13:46:51.409Z,27.37
2023-01-11T13:49:17.797Z,27.23
2023-01-11T13:51:44.198Z,27.14
2023-01-11T13:54:10.654Z,27.19
2023-01-11T13:56:36.975Z,27.11
2023-01-11T13:59:03.374Z,26.85
2023-01-11T14:01:29.828Z,26.97
2023-01-11T14:03:56.182Z,26.83
2023-01-11T14:06:22.463Z,26.98
2023-01-11T14:08:48.855Z,26.86
2023-01-11T14:11:15.202Z,27.03
2023-01-11T14:13:41.597Z,26.99
2023-01-11T14:16:08.301Z,27.08
2023-01-11T14:18:34.622Z,27.34
2023-01-11T14:21:00.973Z,27.54
2023-01-11T14:23:27.429Z,27.22
2023-01-11T14:25:53.784Z,27.15
2023-01-11T14:28:20.170Z,27.11
2023-01-11T14:30:46.656Z,27.12
2023-01-11T14:33:13.009Z,27.04
2023-01-11T14:35:39.351Z,27.24
2023-01-11T14:38:05.758Z,27.14
2023-01-11T14:40:32.119Z,27.04
2023-01-11T14:42:58.541Z,27.01
2023-01-11T14:45:24.885Z,27.05
2023-01-11T14:47:52.287Z,27.11
2023-01-11T14:50:18.637Z,27.08
2023-01-11T14:52:45.039Z,27.21
2023-01-11T14:55:11.382Z,27.38
2023-01-11T14:57:37.794Z,27.51
2023-01-11T15:00:04.193Z,27.37
2023-01-11T15:02:30.593Z,27.43
2023-01-11T15:04:57.061Z,27.47
2023-01-11T15:07:23.353Z,27.47
2023-01-11T15:09:49.676Z,27.42
2023-01-11T15:12:16.061Z,27.32
2023-01-11T15:14:42.423Z,27.32
2023-01-11T15:17:08.764Z,27.25
2023-01-11T15:19:35.157Z,27.25
2023-01-11T15:22:01.572Z,27.06
2023-01-11T15:24:27.960Z,27.32
2023-01-11T15:26:54.392Z,27.65
2023-01-11T15:29:20.697Z,27.70
2023-01-11T15:31:47.127Z,27.79
2023-01-11T15:34:13.467Z,27.69
2023-01-11T15:36:39.812Z,27.44
2023-01-11T15:39:06.208Z,27.28
2023-01-11T15:41:32.523Z,27.34
2023-01-11T15:43:58.935Z,27.29
2023-01-11T15:46:25.317Z,27.23
2023-01-11T15:48:51.654Z,27.31
2023-01-11T15:51:18.006Z,27.55
2023-01-11T15:53:44.383Z,27.74
2023-01-11T15:56:10.734Z,27.54
2023-01-11T15:58:37.136Z,27.54
2023-01-11T16:01:03.558Z,27.39
2023-01-11T16:03:30.016Z,27.30
2023-01-11T16:05:56.345Z,27.28
2023-01-11T16:08:22.736Z,27.33
2023-01-11T16:10:49.095Z,27.28
2023-01-11T16:13:15.490Z,27.37
2023-01-11T16:15:41.836Z,27.18
2023-01-11T16:18:08.210Z,26.92
2023-01-11T16:20:36.736Z,26.99
2023-01-11T16:23:03.111Z,27.27
2023-01-11T16:25:29.453Z,27.38
2023-01-11T16:27:55.837Z,27.28
2023-01-11T16:30:22.174Z,27.42
2023-01-11T16:32:48.580Z,27.54
2023-01-11T16:35:14.971Z,27.76
2023-01-11T16:37:41.348Z,27.54
2023-01-11T16:40:07.679Z,27.43
2023-01-11T16:42:34.067Z,27.31
2023-01-11T16:45:01.467Z,27.38
2023-01-11T16:47:27.841Z,27.34
2023-01-11T16:49:54.175Z,27.24
2023-01-11T16:52:20.556Z,27.10
2023-01-11T16:54:46.910Z,27.05
2023-01-11T16:57:15.118Z,27.06
2023-01-11T16:59:39.622Z,27.14
2023-01-11T17:02:06.061Z,27.16
2023-01-11T17:04:32.347Z,27.13
2023-01-11T17:06:58.752Z,27.02
2023-01-11T17:09:25.083Z,26.96
2023-01-11T17:11:51.482Z,27.07
2023-01-11T17:14:17.812Z,27.34
2023-01-11T17:16:44.293Z,27.62
2023-01-11T17:19:10.533Z,27.82
2023-01-11T17:21:36.924Z,27.60
2023-01-11T17:24:03.272Z,27.43
2023-01-11T17:26:29.662Z,27.50
2023-01-11T17:28:56.016Z,27.60
2023-01-11T17:31:22.445Z,27.41
2023-01-11T17:33:48.733Z,27.42
2023-01-11T17:36:15.108Z,27.37
2023-01-11T17:38:41.450Z,27.37
2023-01-11T17:41:07.868Z,27.25
2023-01-11T17:43:34.183Z,27.19
2023-01-11T17:46:00.590Z,27.13
2023-01-11T17:48:26.969Z,27.36
2023-01-11T17:50:53.365Z,27.63
2023-01-11T17:53:19.705Z,27.85
2023-01-11T17:55:46.084Z,27.78
2023-01-11T17:58:12.431Z,27.85
2023-01-11T18:00:38.826Z,27.70
2023-01-11T18:03:05.147Z,27.60
2023-01-11T18:05:31.537Z,27.45
2023-01-11T18:07:57.899Z,27.39
2023-01-11T18:10:24.284Z,27.37
2023-01-11T18:12:50.624Z,27.31
2023-01-11T18:15:17.031Z,27.24
2023-01-11T18:17:43.375Z,27.41
2023-01-11T18:20:09.758Z,27.71
2023-01-11T18:22:36.128Z,27.66
2023-01-11T18:25:02.501Z,27.65
2023-01-11T18:27:28.847Z,27.57
2023-01-11T18:29:55.229Z,27.57
2023-01-11T18:32:21.558Z,27.41
2023-01-11T18:34:47.948Z,27.56
2023-01-11T18:37:14.309Z,27.40
2023-01-11T18:39:40.704Z,27.71
2023-01-11T18:42:07.055Z,27.82
2023-01-11T18:44:33.433Z,27.65
2023-01-11T18:46:59.779Z,27.76
2023-01-11T18:49:26.185Z,27.89
2023-01-11T18:51:52.538Z,28.02
2023-01-11T18:54:18.925Z,28.08
2023-01-11T18:56:45.266Z,27.98
2023-01-11T18:59:11.658Z,27.91
2023-01-11T19:01:52.723Z,27.89
2023-01-11T19:04:04.388Z,28.02
2023-01-11T19:06:30.737Z,28.11
2023-01-11T19:08:57.120Z,28.29
2023-01-11T19:11:23.497Z,28.44
2023-01-11T19:13:49.891Z,28.62
2023-01-11T19:16:16.226Z,28.72
2023-01-11T19:18:42.628Z,28.76
2023-01-11T19:21:08.965Z,28.84
2023-01-11T19:23:35.397Z,28.89
2023-01-11T19:26:01.803Z,29.03
2023-01-11T19:28:28.194Z,29.15
2023-01-11T19:30:54.576Z,29.20
2023-01-11T19:33:20.917Z,29.27
2023-01-11T19:35:47.266Z,29.36
2023-01-11T19:38:13.666Z,29.47
2023-01-11T19:40:40.012Z,29.48
2023-01-11T19:43:06.397Z,29.53
2023-01-11T19:45:32.749Z,29.68
2023-01-11T19:47:59.134Z,29.56
2023-01-11T19:50:25.487Z,29.66
2023-01-11T19:52:51.865Z,29.68
2023-01-11T19:55:18.214Z,29.73
2023-01-11T19:57:44.620Z,29.79
2023-01-11T20:00:13.463Z,29.82
2023-01-11T20:02:37.360Z,29.99
2023-01-11T20:05:05.552Z,29.98
2023-01-11T20:07:31.940Z,30.02
2023-01-11T20:09:58.280Z,30.06
2023-01-11T20:12:24.672Z,29.91
2023-01-11T20:14:51.046Z,29.93
2023-01-11T20:17:17.462Z,30.09
2023-01-11T20:19:43.810Z,30.19
2023-01-11T20:22:10.198Z,30.14
2023-01-11T20:24:36.566Z,30.07
2023-01-11T20:27:03.034Z,30.17
2023-01-11T20:29:29.295Z,30.11
2023-01-11T20:31:55.812Z,30.20
2023-01-11T20:34:22.073Z,30.14
2023-01-11T20:36:48.522Z,30.17
2023-01-11T20:39:14.886Z,30.24
2023-01-11T20:41:41.369Z,30.21
2023-01-11T20:44:07.698Z,30.20
2023-01-11T20:46:34.142Z,30.17
2023-01-11T20:49:00.470Z,30.30
2023-01-11T20:51:26.827Z,30.32
2023-01-11T20:53:53.169Z,30.37
2023-01-11T20:56:19.550Z,30.24
2023-01-11T20:58:45.891Z,30.27
2023-01-11T21:01:12.312Z,30.38
2023-01-11T21:03:38.630Z,30.40
2023-01-11T21:06:05.013Z,30.22
2023-01-11T21:08:31.360Z,30.34
2023-01-11T21:10:57.742Z,30.34
2023-01-11T21:13:24.091Z,30.32
2023-01-11T21:15:50.518Z,30.43
2023-01-11T21:18:16.834Z,30.40
2023-01-11T21:20:43.222Z,30.41
2023-01-11T21:23:09.563Z,30.52
2023-01-11T21:25:36.031Z,30.47
2023-01-11T21:28:02.408Z,30.55
2023-01-11T21:30:28.808Z,30.39
2023-01-11T21:32:55.151Z,30.51
2023-01-11T21:35:21.544Z,30.44
2023-01-11T21:37:47.878Z,30.47
2023-01-11T21:40:15.494Z,30.55
2023-01-11T21:42:40.607Z,30.53
2023-01-11T21:45:06.989Z,30.63
2023-01-11T21:47:33.327Z,30.58
2023-01-11T21:49:59.743Z,30.68
2023-01-11T21:52:26.069Z,30.69
2023-01-11T21:54:52.461Z,30.66
2023-01-11T21:57:18.798Z,30.73
2023-01-11T21:59:45.179Z,30.75
2023-01-11T22:02:11.569Z,30.84
2023-01-11T22:04:37.943Z,30.79
2023-01-11T22:07:04.280Z,30.79
2023-01-11T22:09:30.694Z,30.75
2023-01-11T22:11:57.014Z,30.75
2023-01-11T22:14:23.413Z,30.80
2023-01-11T22:16:49.749Z,30.85
2023-01-11T22:19:16.142Z,30.91
2023-01-11T22:21:42.488Z,30.89
2023-01-11T22:24:10.359Z,31.05
2023-01-11T22:26:35.246Z,30.88
2023-01-11T22:29:01.645Z,31.25
2023-01-11T22:31:29.094Z,30.88
2023-01-11T22:33:54.370Z,30.93
2023-01-11T22:36:20.741Z,30.91
2023-01-11T22:38:49.619Z,30.92
2023-01-11T22:41:15.968Z,31.05
2023-01-11T22:43:42.372Z,31.01
2023-01-11T22:46:08.793Z,30.99
2023-01-11T22:48:35.167Z,31.00
2023-01-11T22:51:01.513Z,31.06
2023-01-11T22:53:27.902Z,31.14
2023-01-11T22:55:54.240Z,31.20
2023-01-11T22:58:20.634Z,31.08
2023-01-11T23:00:46.986Z,31.10
2023-01-11T23:03:13.432Z,31.15
2023-01-11T23:05:39.705Z,31.21
2023-01-11T23:08:06.096Z,31.12
2023-01-11T23:10:32.435Z,31.21
2023-01-11T23:12:58.834Z,31.20
2023-01-11T23:15:25.182Z,31.20
2023-01-11T23:17:51.562Z,31.26
2023-01-11T23:20:17.910Z,31.19
2023-01-11T23:22:44.303Z,31.13
2023-01-11T23:25:10.650Z,31.07
2023-01-11T23:27:37.049Z,31.54
2023-01-11T23:30:04.713Z,31.61
2023-01-11T23:32:29.773Z,31.65
2023-01-11T23:34:56.123Z,31.59
2023-01-11T23:37:22.509Z,31.57
2023-01-11T23:39:48.857Z,31.59
2023-01-11T23:42:15.282Z,31.59
2023-01-11T23:44:41.626Z,31.49
2023-01-11T23:47:08.126Z,31.36
2023-01-11T23:49:34.487Z,31.23
2023-01-11T23:52:00.879Z,31.30
2023-01-11T23:54:28.320Z,31.25
2023-01-11T23:56:54.689Z,31.33
2023-01-11T23:59:21.045Z,31.29
